»·PEaware :: N1840V KOAK-KSAC

N1840V :: KOAK-KSAC

FLIGHT INFORMATION

Flight Status: Arrived
Operator: Privately registered:
United States
More flights under this callsign
Pilot: Bobby R. (5974)
Aircraft: CESSNA 172 SKYHAWK
(C172)
More flights by this aircraft type
Origin: KOAK Metro Oakland Intl
United States
Destination: KSAC Sacramento Executive
United States
More flights between these airports :: More routes between these airports
Route:
File this flight plan on PilotEdge
Remarks:
Altitude:
(Current/Filed)
5,500ft
Speed:
(Current/Filed)
110kts
Departed: 01-Aug-20 09:53 PM
Arrived: 01-Aug-20 10:27 PM
Distance/Time
Traveled:
1562nm/0:34
Distance/Time
To Go:
Arrived

Flight Plot

Page will automatically refresh every two minutes.


Map Options




Map Legend


Flown Route
Filed Route
Departure Airport
Arrival Airport
Navaid (VOR, NDB)
Fix

Horizontal Profiles

Position Reports

Time Latitude Longitude Heading Altitude Ground
Speed
01-Aug-20 21:36 37.358577 -121.931111 314 53ft 0kts
01-Aug-20 21:37 37.358577 -121.931111 314 53ft 0kts
01-Aug-20 21:38 37.358577 -121.931111 314 53ft 0kts
01-Aug-20 21:39 37.358577 -121.931111 314 53ft 0kts
01-Aug-20 21:40 37.358577 -121.931111 314 53ft 0kts
01-Aug-20 21:41 37.726559 -122.205338 153 7ft 0kts
01-Aug-20 21:42 37.726558 -122.205338 153 7ft 0kts
01-Aug-20 21:43 37.726558 -122.205338 153 7ft 0kts
01-Aug-20 21:45 37.726558 -122.205338 153 7ft 0kts
01-Aug-20 21:46 37.726558 -122.205338 153 7ft 0kts
01-Aug-20 21:47 37.726558 -122.205338 153 7ft 0kts
01-Aug-20 21:48 37.726558 -122.205338 153 7ft 0kts
01-Aug-20 21:49 37.726558 -122.205338 153 7ft 0kts
01-Aug-20 21:50 37.726342 -122.205176 146 7ft 7kts
01-Aug-20 21:51 37.725600 -122.204486 182 7ft 0kts
01-Aug-20 21:52 37.725600 -122.204486 182 7ft 0kts
01-Aug-20 21:53 37.725994 -122.208264 293 7ft 66kts
01-Aug-20 21:54 37.740740 -122.230799 352 700ft 99kts
01-Aug-20 21:55 37.764117 -122.211190 40 1401ft 105kts
01-Aug-20 21:56 37.786221 -122.186859 40 2100ft 105kts
01-Aug-20 21:57 37.807574 -122.162087 43 2799ft 103kts
01-Aug-20 21:58 37.828818 -122.138353 39 3498ft 100kts
01-Aug-20 21:59 37.850459 -122.116815 37 4195ft 97kts
01-Aug-20 22:00 37.871616 -122.096535 36 4890ft 93kts
01-Aug-20 22:01 37.892069 -122.077179 36 5495ft 98kts
01-Aug-20 22:02 37.916845 -122.053645 36 5500ft 116kts
01-Aug-20 22:02 37.938860 -122.032807 36 5413ft 122kts
01-Aug-20 22:04 37.969617 -122.003752 36 5415ft 120kts
01-Aug-20 22:04 37.991682 -121.982905 36 5413ft 118kts
01-Aug-20 22:05 38.017956 -121.958064 36 5413ft 117kts
01-Aug-20 22:07 38.048139 -121.929506 36 5501ft 113kts
01-Aug-20 22:07 38.069647 -121.909130 36 5504ft 117kts
01-Aug-20 22:08 38.095846 -121.884293 36 5504ft 117kts
01-Aug-20 22:09 38.122356 -121.859677 34 5505ft 119kts
01-Aug-20 22:10 38.149858 -121.835779 35 5505ft 120kts
01-Aug-20 22:11 38.178802 -121.808545 36 5077ft 135kts
01-Aug-20 22:12 38.208941 -121.779919 36 4578ft 135kts
01-Aug-20 22:13 38.239356 -121.751554 31 4076ft 135kts
01-Aug-20 22:14 38.270419 -121.724704 29 3576ft 135kts
01-Aug-20 22:15 38.303093 -121.700944 29 3075ft 135kts
01-Aug-20 22:16 38.333690 -121.678637 29 2999ft 121kts
01-Aug-20 22:17 38.362656 -121.657396 29 2999ft 119kts
01-Aug-20 22:18 38.391491 -121.636139 29 2930ft 125kts
01-Aug-20 22:19 38.423123 -121.612650 30 2413ft 129kts
01-Aug-20 22:20 38.449310 -121.589585 40 1898ft 108kts
01-Aug-20 22:21 38.471666 -121.565034 42 1396ft 105kts
01-Aug-20 22:22 38.492396 -121.540701 42 1095ft 89kts
01-Aug-20 22:23 38.510846 -121.518963 42 1102ft 98kts
01-Aug-20 22:24 38.531254 -121.497200 29 1060ft 89kts
01-Aug-20 22:25 38.529475 -121.481310 200 607ft 73kts
01-Aug-20 22:26 38.514610 -121.492926 209 20ft 33kts
01-Aug-20 22:27 38.511364 -121.496847 276 20ft 0kts
01-Aug-20 22:28 38.511966 -121.498439 351 20ft 13kts
01-Aug-20 22:29 38.513028 -121.497729 212 20ft 0kts
01-Aug-20 22:30 38.513028 -121.497729 212 20ft 0kts
01-Aug-20 22:31 38.513028 -121.497729 212 20ft 0kts
01-Aug-20 22:32 38.513028 -121.497729 212 20ft 0kts
01-Aug-20 22:33 38.513028 -121.497729 212 20ft 0kts
01-Aug-20 22:34 43.984400 -88.558732 124 789ft 0kts
01-Aug-20 22:35 43.984400 -88.558732 124 789ft 0kts
01-Aug-20 22:36 43.984400 -88.558732 124 789ft 0kts
01-Aug-20 22:37 43.984400 -88.558732 124 789ft 0kts
01-Aug-20 22:38 43.984400 -88.558732 124 789ft 0kts
01-Aug-20 22:39 43.984400 -88.558732 124 789ft 0kts

Navigation Log

Ident Type
Flight plan parsing failed, navigation log unavailable